createdAt,value
2017-09-24T00:01:32.204Z,18.27
2017-09-24T00:04:00.085Z,17.27
2017-09-24T00:06:27.662Z,17.50
2017-09-24T00:08:55.250Z,16.73
2017-09-24T00:11:22.858Z,16.30
2017-09-24T00:13:50.438Z,17.07
2017-09-24T00:16:18.043Z,16.80
2017-09-24T00:18:45.611Z,17.17
2017-09-24T00:21:13.598Z,17.13
2017-09-24T00:23:41.214Z,16.53
2017-09-24T00:26:08.801Z,16.67
2017-09-24T00:28:36.413Z,16.43
2017-09-24T00:31:04.754Z,18.00
2017-09-24T00:33:32.378Z,17.13
2017-09-24T00:35:59.955Z,16.93
2017-09-24T00:38:27.802Z,20.13
2017-09-24T00:40:55.403Z,19.87
2017-09-24T00:43:23.057Z,18.57
2017-09-24T00:45:50.652Z,19.70
2017-09-24T00:48:18.246Z,20.90
2017-09-24T00:50:45.848Z,23.40
2017-09-24T00:53:13.467Z,22.53
2017-09-24T00:55:41.176Z,22.73
2017-09-24T00:58:08.770Z,20.67
2017-09-24T01:00:36.354Z,19.70
2017-09-24T01:03:03.967Z,20.43
2017-09-24T01:05:31.551Z,19.93
2017-09-24T01:07:59.167Z,17.90
2017-09-24T01:10:26.763Z,18.40
2017-09-24T01:12:55.523Z,18.27
2017-09-24T01:15:23.117Z,17.40
2017-09-24T01:17:50.734Z,17.97
2017-09-24T01:20:18.362Z,19.37
2017-09-24T01:22:46.109Z,18.60
2017-09-24T01:25:13.726Z,18.47
2017-09-24T01:27:41.298Z,18.03
2017-09-24T01:30:09.010Z,18.20
2017-09-24T01:32:36.717Z,18.13
2017-09-24T01:35:04.287Z,18.83
2017-09-24T01:37:32.640Z,16.40
2017-09-24T01:40:00.757Z,18.90
2017-09-24T01:42:28.414Z,18.23
2017-09-24T01:44:56.812Z,18.33
2017-09-24T01:47:24.708Z,16.87
2017-09-24T01:49:52.298Z,18.23
2017-09-24T01:52:19.886Z,18.67
2017-09-24T01:54:47.498Z,19.20
2017-09-24T01:57:16.396Z,16.97
2017-09-24T01:59:43.990Z,18.00
2017-09-24T02:02:11.582Z,16.73
2017-09-24T02:04:39.381Z,18.30
2017-09-24T02:07:06.966Z,18.53
2017-09-24T02:09:35.317Z,20.37
2017-09-24T02:12:02.915Z,18.47
2017-09-24T02:14:30.715Z,19.97
2017-09-24T02:16:58.330Z,20.00
2017-09-24T02:19:26.988Z,18.53
2017-09-24T02:21:54.707Z,19.40
2017-09-24T02:24:22.304Z,19.23
2017-09-24T02:26:49.886Z,18.90
2017-09-24T02:29:17.520Z,18.23
2017-09-24T02:31:45.802Z,19.40
2017-09-24T02:34:13.448Z,19.07
2017-09-24T02:36:41.088Z,18.87
2017-09-24T02:39:09.017Z,19.27
2017-09-24T02:41:37.430Z,19.17
2017-09-24T02:44:05.039Z,18.80
2017-09-24T02:46:32.633Z,21.23
2017-09-24T02:49:00.223Z,22.00
2017-09-24T02:51:27.849Z,20.60
2017-09-24T02:53:56.217Z,19.10
2017-09-24T02:56:24.869Z,20.37
2017-09-24T02:58:52.463Z,21.17
2017-09-24T03:01:20.819Z,20.27
2017-09-24T03:03:48.660Z,20.47
2017-09-24T03:06:16.215Z,18.10
2017-09-24T03:08:43.814Z,19.50
2017-09-24T03:11:11.399Z,19.60
2017-09-24T03:13:39.319Z,19.83
2017-09-24T03:16:06.902Z,19.00
2017-09-24T03:18:34.486Z,19.63
2017-09-24T03:21:02.109Z,18.73
2017-09-24T03:23:29.899Z,22.87
2017-09-24T03:25:58.601Z,28.23
2017-09-24T03:28:26.179Z,28.60
2017-09-24T03:30:54.023Z,23.67
2017-09-24T03:33:21.605Z,24.40
2017-09-24T03:35:49.229Z,21.17
2017-09-24T03:38:17.601Z,20.47
2017-09-24T03:40:45.935Z,19.83
2017-09-24T03:43:13.545Z,18.00
2017-09-24T03:45:41.904Z,20.30
2017-09-24T03:48:09.861Z,22.50
2017-09-24T03:50:37.454Z,24.17
2017-09-24T03:53:05.799Z,20.10
2017-09-24T03:55:33.397Z,20.90
2017-09-24T03:58:01.002Z,21.30
2017-09-24T04:00:29.388Z,22.50
2017-09-24T04:03:01.729Z,23.43
2017-09-24T04:05:29.613Z,21.43
2017-09-24T04:07:57.209Z,20.13
2017-09-24T04:10:24.755Z,20.93
2017-09-24T04:12:52.329Z,20.70
2017-09-24T04:15:19.899Z,21.73
2017-09-24T04:17:47.770Z,24.07
2017-09-24T04:20:16.434Z,23.57
2017-09-24T04:22:44.299Z,24.60
2017-09-24T04:25:11.882Z,23.43
2017-09-24T04:27:40.239Z,24.23
2017-09-24T04:30:07.828Z,25.70
2017-09-24T04:32:35.385Z,24.00
2017-09-24T04:35:03.746Z,24.03
2017-09-24T04:37:32.104Z,22.47
2017-09-24T04:39:59.986Z,22.10
2017-09-24T04:42:28.325Z,23.50
2017-09-24T04:44:55.970Z,21.60
2017-09-24T04:47:23.578Z,18.90
2017-09-24T04:49:51.145Z,20.10
2017-09-24T04:52:19.506Z,21.77
2017-09-24T04:54:47.266Z,22.03
2017-09-24T04:57:15.934Z,20.67
2017-09-24T04:59:43.515Z,22.63
2017-09-24T05:02:11.102Z,19.80
2017-09-24T05:04:39.503Z,19.10
2017-09-24T05:07:07.083Z,20.03
2017-09-24T05:09:34.706Z,20.87
2017-09-24T05:12:03.390Z,23.80
2017-09-24T05:14:32.118Z,24.90
2017-09-24T05:16:59.711Z,22.90
2017-09-24T05:19:27.305Z,23.50
2017-09-24T05:21:54.903Z,24.97
2017-09-24T05:24:22.484Z,23.87
2017-09-24T05:26:50.087Z,23.23
2017-09-24T05:29:17.685Z,23.03
2017-09-24T05:31:45.385Z,25.37
2017-09-24T05:34:13.744Z,26.47
2017-09-24T05:36:41.320Z,24.60
2017-09-24T05:39:09.690Z,23.80
2017-09-24T05:41:37.298Z,26.07
2017-09-24T05:44:05.013Z,23.30
2017-09-24T05:46:32.586Z,24.67
2017-09-24T05:49:00.939Z,24.03
2017-09-24T05:51:28.610Z,22.87
2017-09-24T05:53:56.178Z,21.70
2017-09-24T05:56:24.569Z,20.10
2017-09-24T05:58:52.920Z,21.00
2017-09-24T06:01:20.764Z,20.57
2017-09-24T06:03:49.000Z,18.67
2017-09-24T06:06:16.675Z,19.97
2017-09-24T06:08:44.297Z,19.47
2017-09-24T06:11:12.643Z,22.17
2017-09-24T06:13:40.230Z,21.10
2017-09-24T06:16:07.981Z,21.03
2017-09-24T06:18:35.699Z,20.57
2017-09-24T06:21:03.348Z,18.67
2017-09-24T06:23:31.246Z,17.00
2017-09-24T06:25:58.831Z,17.93
2017-09-24T06:28:26.439Z,17.03
2017-09-24T06:30:54.063Z,17.50
2017-09-24T06:33:21.649Z,17.67
2017-09-24T06:35:49.248Z,16.77
2017-09-24T06:38:16.840Z,17.97
2017-09-24T06:40:44.764Z,15.43
2017-09-24T06:43:12.337Z,16.13
2017-09-24T06:45:39.925Z,17.07
2017-09-24T06:48:07.537Z,15.43
2017-09-24T06:50:35.144Z,18.60
2017-09-24T06:53:02.762Z,17.07
2017-09-24T06:55:30.480Z,15.90
2017-09-24T06:57:59.455Z,15.90
2017-09-24T07:00:27.170Z,17.47
2017-09-24T07:02:54.770Z,16.03
2017-09-24T07:05:22.406Z,17.73
2017-09-24T07:07:50.009Z,15.83
2017-09-24T07:10:17.958Z,16.10
2017-09-24T07:12:45.543Z,17.23
2017-09-24T07:15:13.891Z,15.77
2017-09-24T07:17:41.582Z,15.43
2017-09-24T07:20:09.934Z,16.53
2017-09-24T07:22:37.569Z,16.90
2017-09-24T07:25:05.198Z,16.00
2017-09-24T07:27:32.983Z,15.10
2017-09-24T07:30:00.644Z,15.87
2017-09-24T07:32:28.231Z,16.73
2017-09-24T07:34:56.106Z,16.60
2017-09-24T07:37:23.694Z,16.27
2017-09-24T07:39:52.055Z,17.07
2017-09-24T07:42:19.650Z,17.53
2017-09-24T07:44:47.247Z,15.67
2017-09-24T07:47:15.200Z,15.90
2017-09-24T07:49:42.792Z,15.90
2017-09-24T07:52:10.379Z,16.07
2017-09-24T07:54:38.749Z,14.10
2017-09-24T07:57:06.351Z,16.30
2017-09-24T07:59:33.979Z,17.47
2017-09-24T08:02:02.394Z,17.30
2017-09-24T08:04:30.290Z,14.90
2017-09-24T08:06:58.665Z,17.73
2017-09-24T08:09:27.219Z,17.30
2017-09-24T08:11:54.850Z,16.83
2017-09-24T08:14:22.471Z,14.23
2017-09-24T08:16:50.481Z,15.13
2017-09-24T08:19:18.082Z,15.10
2017-09-24T08:21:45.679Z,16.07
2017-09-24T08:24:13.326Z,15.70
2017-09-24T08:26:41.321Z,17.00
2017-09-24T08:29:09.289Z,15.93
2017-09-24T08:31:36.960Z,16.03
2017-09-24T08:34:05.325Z,17.63
2017-09-24T08:36:33.894Z,18.00
2017-09-24T08:39:01.487Z,17.30
2017-09-24T08:41:29.523Z,18.47
2017-09-24T08:43:57.081Z,18.50
2017-09-24T08:46:24.671Z,18.20
2017-09-24T08:48:53.051Z,17.23
2017-09-24T08:51:21.468Z,17.77
2017-09-24T08:53:49.091Z,16.17
2017-09-24T08:56:17.430Z,14.67
2017-09-24T08:58:45.387Z,15.10
2017-09-24T09:01:12.998Z,13.43
2017-09-24T09:03:41.374Z,16.63
2017-09-24T09:06:09.768Z,15.40
2017-09-24T09:08:37.362Z,14.80
2017-09-24T09:11:04.956Z,16.40
2017-09-24T09:13:33.363Z,13.37
2017-09-24T09:16:01.229Z,14.43
2017-09-24T09:18:28.842Z,14.30
2017-09-24T09:20:56.422Z,14.47
2017-09-24T09:23:24.063Z,14.23
2017-09-24T09:25:51.661Z,14.30
2017-09-24T09:28:19.262Z,14.27
2017-09-24T09:30:46.878Z,13.50
2017-09-24T09:33:21.498Z,14.23
2017-09-24T09:35:50.179Z,14.13
2017-09-24T09:38:18.610Z,13.93
2017-09-24T09:40:46.257Z,12.77
2017-09-24T09:43:13.849Z,12.33
2017-09-24T09:45:53.338Z,13.10
2017-09-24T09:48:20.945Z,9.90
2017-09-24T09:50:48.911Z,10.23
2017-09-24T09:53:16.501Z,9.77
2017-09-24T09:55:44.886Z,11.60
2017-09-24T09:58:13.494Z,10.40
2017-09-24T10:00:42.186Z,10.27
2017-09-24T10:03:10.434Z,9.00
2017-09-24T10:05:38.138Z,10.57
2017-09-24T10:08:18.163Z,8.37
2017-09-24T10:10:45.847Z,9.13
2017-09-24T10:13:13.487Z,8.80
2017-09-24T10:15:41.088Z,8.45
2017-09-24T10:18:08.691Z,8.93
2017-09-24T10:20:37.019Z,9.45
2017-09-24T10:23:05.051Z,9.30
2017-09-24T10:25:32.667Z,9.30
2017-09-24T10:28:00.260Z,8.97
2017-09-24T10:30:39.773Z,9.90
2017-09-24T10:33:07.366Z,10.70
2017-09-24T10:35:34.980Z,8.80
2017-09-24T10:38:02.596Z,9.20
2017-09-24T10:40:30.330Z,8.43
2017-09-24T10:42:57.923Z,8.70
2017-09-24T10:45:25.538Z,8.00
2017-09-24T10:47:53.354Z,7.40
2017-09-24T10:50:20.985Z,7.50
2017-09-24T10:52:48.636Z,7.47
2017-09-24T10:55:17.014Z,8.07
2017-09-24T10:57:45.514Z,7.67
2017-09-24T11:00:13.842Z,7.23
2017-09-24T11:02:41.414Z,6.60
2017-09-24T11:05:09.041Z,8.10
2017-09-24T11:07:36.634Z,6.90
2017-09-24T11:10:04.254Z,7.80
2017-09-24T11:12:31.847Z,7.70
2017-09-24T11:14:59.452Z,7.20
2017-09-24T11:17:27.087Z,7.27
2017-09-24T11:19:54.682Z,6.70
2017-09-24T11:22:23.627Z,7.00
2017-09-24T11:24:51.230Z,6.90
2017-09-24T11:27:18.796Z,7.30
2017-09-24T11:29:46.436Z,8.57
2017-09-24T11:32:14.794Z,7.27
2017-09-24T11:34:42.651Z,7.10
2017-09-24T11:37:10.470Z,7.15
2017-09-24T11:39:38.059Z,5.60
2017-09-24T11:42:05.695Z,6.47
2017-09-24T11:44:33.289Z,6.70
2017-09-24T11:47:00.883Z,7.37
2017-09-24T11:49:29.234Z,9.50
2017-09-24T11:51:57.261Z,7.37
2017-09-24T11:54:24.875Z,7.43
2017-09-24T11:56:52.618Z,7.40
2017-09-24T11:59:20.348Z,8.03
2017-09-24T12:01:47.935Z,7.83
2017-09-24T12:04:16.075Z,8.27
2017-09-24T12:06:43.731Z,8.30
2017-09-24T12:09:11.638Z,6.90
2017-09-24T12:11:39.250Z,6.30
2017-09-24T12:14:06.859Z,6.23
2017-09-24T12:16:34.458Z,6.87
2017-09-24T12:19:03.124Z,7.50
2017-09-24T12:21:31.916Z,7.27
2017-09-24T12:23:59.565Z,6.20
2017-09-24T12:26:27.294Z,6.30
2017-09-24T12:28:54.879Z,6.70
2017-09-24T12:31:22.533Z,7.13
2017-09-24T12:33:50.146Z,5.70
2017-09-24T12:36:17.740Z,6.23
2017-09-24T12:38:45.403Z,5.30
2017-09-24T12:41:13.002Z,4.85
2017-09-24T12:43:40.948Z,5.20
2017-09-24T12:46:08.534Z,5.45
2017-09-24T12:48:36.897Z,4.75
2017-09-24T12:51:04.532Z,4.53
2017-09-24T12:53:32.152Z,5.10
2017-09-24T12:56:00.530Z,5.27
2017-09-24T12:58:28.876Z,5.90
2017-09-24T13:00:56.726Z,5.37
2017-09-24T13:03:24.578Z,5.33
2017-09-24T13:05:52.614Z,5.70
2017-09-24T13:08:20.250Z,6.57
2017-09-24T13:10:47.871Z,7.50
2017-09-24T13:13:15.496Z,6.60
2017-09-24T13:15:43.087Z,7.00
2017-09-24T13:18:11.082Z,7.27
2017-09-24T13:20:38.714Z,8.27
2017-09-24T13:23:06.318Z,8.40
2017-09-24T13:25:34.200Z,7.37
2017-09-24T13:28:02.727Z,7.27
2017-09-24T13:30:30.728Z,6.90
2017-09-24T13:32:58.312Z,6.90
2017-09-24T13:35:26.673Z,7.00
2017-09-24T13:37:54.321Z,6.90
2017-09-24T13:40:22.123Z,5.30
2017-09-24T13:42:50.352Z,6.50
2017-09-24T13:45:18.088Z,6.10
2017-09-24T13:47:45.718Z,5.80
2017-09-24T13:50:14.094Z,6.53
2017-09-24T13:52:42.444Z,5.10
2017-09-24T13:55:10.100Z,6.20
2017-09-24T13:57:37.677Z,5.53
2017-09-24T14:00:06.180Z,7.07
2017-09-24T14:02:34.543Z,5.90
2017-09-24T14:05:02.963Z,6.10
2017-09-24T14:07:30.557Z,5.70
2017-09-24T14:09:58.911Z,6.43
2017-09-24T14:12:26.529Z,6.20
2017-09-24T14:14:55.225Z,6.80
2017-09-24T14:17:23.255Z,8.03
2017-09-24T14:19:51.718Z,8.80
2017-09-24T14:22:19.353Z,8.60
2017-09-24T14:24:46.947Z,7.67
2017-09-24T14:27:14.527Z,8.03
2017-09-24T14:29:42.116Z,8.17
2017-09-24T14:32:09.725Z,8.23
2017-09-24T14:34:37.399Z,7.87
2017-09-24T14:37:05.307Z,8.70
2017-09-24T14:39:32.920Z,8.40
2017-09-24T14:42:00.535Z,8.00
2017-09-24T14:44:28.154Z,8.53
2017-09-24T14:46:55.794Z,7.90
2017-09-24T14:49:23.463Z,8.27
2017-09-24T14:51:51.194Z,7.77
2017-09-24T14:54:18.795Z,7.67
2017-09-24T14:56:46.612Z,8.10
2017-09-24T14:59:14.229Z,6.87
2017-09-24T15:01:41.815Z,7.67
2017-09-24T15:04:09.447Z,7.13
2017-09-24T15:06:37.070Z,7.23
2017-09-24T15:09:04.935Z,6.93
2017-09-24T15:11:32.516Z,7.93
2017-09-24T15:14:00.126Z,9.60
2017-09-24T15:16:30.834Z,9.47
2017-09-24T15:18:59.215Z,9.63
2017-09-24T15:21:27.567Z,8.50
2017-09-24T15:23:55.163Z,8.70
2017-09-24T15:26:23.866Z,8.63
2017-09-24T15:28:51.447Z,9.07
2017-09-24T15:31:19.469Z,9.23
2017-09-24T15:33:47.936Z,9.30
2017-09-24T15:36:15.987Z,10.00
2017-09-24T15:38:44.418Z,8.67
2017-09-24T15:41:12.084Z,9.13
2017-09-24T15:43:39.975Z,8.83
2017-09-24T15:46:08.182Z,9.30
2017-09-24T15:48:35.844Z,8.70
2017-09-24T15:51:03.481Z,8.70
2017-09-24T15:53:31.541Z,8.33
2017-09-24T15:55:59.224Z,9.33
2017-09-24T15:58:26.873Z,8.10
2017-09-24T16:00:54.766Z,7.63
2017-09-24T16:03:22.351Z,9.20
2017-09-24T16:05:50.752Z,8.23
2017-09-24T16:08:18.364Z,9.23
2017-09-24T16:10:46.338Z,9.80
2017-09-24T16:13:13.975Z,8.43
2017-09-24T16:15:41.559Z,9.83
2017-09-24T16:18:10.042Z,9.20
2017-09-24T16:20:38.410Z,8.90
2017-09-24T16:23:06.026Z,8.70
2017-09-24T16:25:33.636Z,8.33
2017-09-24T16:28:01.204Z,9.40
2017-09-24T16:30:29.587Z,9.43
2017-09-24T16:32:57.962Z,9.23
2017-09-24T16:35:26.908Z,10.13
2017-09-24T16:37:54.718Z,10.70
2017-09-24T16:40:23.222Z,11.07
2017-09-24T16:42:50.957Z,10.97
2017-09-24T16:45:18.563Z,11.77
2017-09-24T16:47:46.238Z,13.63
2017-09-24T16:50:13.866Z,9.53
2017-09-24T16:52:41.589Z,8.90
2017-09-24T16:55:09.186Z,9.90
2017-09-24T16:57:36.807Z,8.87
2017-09-24T17:00:04.443Z,10.10
2017-09-24T17:02:32.068Z,9.20
2017-09-24T17:04:59.734Z,9.43
2017-09-24T17:07:28.173Z,9.33
2017-09-24T17:09:56.212Z,9.20
2017-09-24T17:12:23.842Z,9.13
2017-09-24T17:14:51.466Z,9.70
2017-09-24T17:17:19.103Z,9.30
2017-09-24T17:19:46.826Z,9.70
2017-09-24T17:22:14.480Z,11.00
2017-09-24T17:24:42.822Z,10.03
2017-09-24T17:27:10.731Z,9.33
2017-09-24T17:29:38.370Z,10.13
2017-09-24T17:32:06.789Z,9.63
2017-09-24T17:34:34.464Z,10.97
2017-09-24T17:37:02.048Z,10.47
2017-09-24T17:39:29.842Z,10.70
2017-09-24T17:41:58.305Z,12.87
2017-09-24T17:44:27.192Z,11.10
2017-09-24T17:46:54.810Z,11.30
2017-09-24T17:49:22.427Z,12.50
2017-09-24T17:51:50.805Z,10.20
2017-09-24T17:54:19.787Z,9.77
2017-09-24T17:56:47.444Z,9.80
2017-09-24T17:59:15.922Z,9.60
2017-09-24T18:01:43.535Z,10.80
2017-09-24T18:04:11.169Z,10.23
2017-09-24T18:06:39.592Z,10.13
2017-09-24T18:09:07.304Z,11.60
2017-09-24T18:11:37.115Z,12.50
2017-09-24T18:14:05.632Z,12.43
2017-09-24T18:16:33.307Z,10.37
2017-09-24T18:19:00.964Z,11.23
2017-09-24T18:21:28.589Z,11.13
2017-09-24T18:23:57.049Z,11.73
2017-09-24T18:26:24.664Z,10.93
2017-09-24T18:28:52.303Z,11.47
2017-09-24T18:31:20.682Z,12.00
2017-09-24T18:33:48.368Z,11.30
2017-09-24T18:36:16.209Z,12.27
2017-09-24T18:38:43.848Z,10.57
2017-09-24T18:41:12.284Z,11.67
2017-09-24T18:43:39.995Z,13.10
2017-09-24T18:46:08.405Z,13.43
2017-09-24T18:48:36.128Z,12.20
2017-09-24T18:51:04.505Z,13.33
2017-09-24T18:53:32.115Z,12.07
2017-09-24T18:55:59.734Z,12.83
2017-09-24T18:58:28.115Z,13.23
2017-09-24T19:00:56.851Z,13.40
2017-09-24T19:03:24.536Z,14.23
2017-09-24T19:05:52.263Z,12.50
2017-09-24T19:08:19.911Z,14.90
2017-09-24T19:10:47.510Z,12.97
2017-09-24T19:13:15.223Z,14.90
2017-09-24T19:15:42.808Z,15.90
2017-09-24T19:18:10.817Z,15.93
2017-09-24T19:20:38.479Z,12.60
2017-09-24T19:23:06.121Z,15.50
2017-09-24T19:25:33.832Z,16.47
2017-09-24T19:28:03.333Z,20.93
2017-09-24T19:30:32.650Z,19.70
2017-09-24T19:33:00.252Z,21.90
2017-09-24T19:35:28.009Z,24.80
2017-09-24T19:37:55.676Z,23.30
2017-09-24T19:40:23.329Z,21.70
2017-09-24T19:42:50.996Z,22.10
2017-09-24T19:45:18.619Z,20.10
2017-09-24T19:47:46.518Z,18.93
2017-09-24T19:50:15.623Z,20.77
2017-09-24T19:52:43.254Z,18.77
2017-09-24T19:55:10.902Z,17.13
2017-09-24T19:57:38.572Z,16.73
2017-09-24T20:00:07.329Z,16.00
2017-09-24T20:02:35.360Z,15.30
2017-09-24T20:05:02.985Z,15.50
2017-09-24T20:07:30.863Z,16.87
2017-09-24T20:09:58.610Z,17.20
2017-09-24T20:12:26.207Z,17.27
2017-09-24T20:14:53.842Z,17.73
2017-09-24T20:17:24.841Z,19.33
2017-09-24T20:19:53.226Z,18.80
2017-09-24T20:22:21.595Z,18.77
2017-09-24T20:24:49.241Z,19.20
2017-09-24T20:27:16.963Z,21.70
2017-09-24T20:29:44.543Z,23.33
2017-09-24T20:32:12.139Z,22.77
2017-09-24T20:34:39.949Z,24.20
2017-09-24T20:37:07.635Z,22.73
2017-09-24T20:39:35.199Z,21.40
2017-09-24T20:42:03.578Z,19.97
2017-09-24T20:44:31.171Z,21.03
2017-09-24T20:46:59.579Z,21.83
2017-09-24T20:49:27.877Z,22.20
2017-09-24T20:51:55.751Z,22.30
2017-09-24T20:54:23.355Z,21.93
2017-09-24T20:56:51.708Z,23.67
2017-09-24T20:59:19.327Z,20.33
2017-09-24T21:01:46.926Z,18.87
2017-09-24T21:04:14.508Z,18.93
2017-09-24T21:06:42.874Z,20.83
2017-09-24T21:09:10.602Z,19.67
2017-09-24T21:11:38.279Z,20.67
2017-09-24T21:14:05.928Z,21.20
2017-09-24T21:16:33.559Z,19.33
2017-09-24T21:19:01.142Z,19.50
2017-09-24T21:21:28.865Z,20.43
2017-09-24T21:23:56.474Z,23.50
2017-09-24T21:26:24.655Z,22.30
2017-09-24T21:28:52.259Z,22.90
2017-09-24T21:31:20.608Z,19.70
2017-09-24T21:33:48.324Z,20.63
2017-09-24T21:36:15.946Z,24.47
2017-09-24T21:38:44.318Z,23.90
2017-09-24T21:41:11.927Z,25.17
2017-09-24T21:43:40.140Z,25.57
2017-09-24T21:46:07.720Z,26.03
2017-09-24T21:48:36.098Z,22.93
2017-09-24T21:51:04.547Z,25.60
2017-09-24T21:53:32.174Z,24.90
2017-09-24T21:55:59.939Z,22.37
2017-09-24T21:58:27.535Z,24.90
2017-09-24T22:00:55.715Z,23.70
2017-09-24T22:03:23.267Z,23.07
2017-09-24T22:05:50.845Z,22.23
2017-09-24T22:08:18.487Z,25.30
2017-09-24T22:10:46.087Z,23.67
2017-09-24T22:13:14.464Z,26.30
2017-09-24T22:15:42.814Z,25.47
2017-09-24T22:18:10.697Z,25.03
2017-09-24T22:20:39.137Z,25.53
2017-09-24T22:23:06.767Z,26.50
2017-09-24T22:25:34.383Z,24.10
2017-09-24T22:28:02.753Z,26.47
2017-09-24T22:30:30.625Z,23.50
2017-09-24T22:32:58.245Z,26.97
2017-09-24T22:35:26.149Z,26.27
2017-09-24T22:37:53.769Z,27.50
2017-09-24T22:40:21.386Z,30.40
2017-09-24T22:42:49.776Z,28.20
2017-09-24T22:45:18.176Z,29.60
2017-09-24T22:47:45.802Z,31.07
2017-09-24T22:50:14.187Z,29.87
2017-09-24T22:52:42.813Z,32.17
2017-09-24T22:55:10.424Z,29.70
2017-09-24T22:57:38.789Z,29.63
2017-09-24T23:00:06.404Z,32.30
2017-09-24T23:02:34.035Z,31.00
2017-09-24T23:05:02.418Z,32.40
2017-09-24T23:07:30.019Z,37.40
2017-09-24T23:09:57.909Z,41.63
2017-09-24T23:12:25.508Z,38.70
2017-09-24T23:14:54.129Z,40.60
2017-09-24T23:17:21.769Z,42.40
2017-09-24T23:19:49.384Z,40.60
2017-09-24T23:22:18.351Z,39.37
2017-09-24T23:24:45.935Z,38.80
2017-09-24T23:27:13.886Z,40.17
2017-09-24T23:29:41.475Z,39.33
2017-09-24T23:32:09.833Z,42.07
2017-09-24T23:34:37.424Z,42.77
2017-09-24T23:37:05.013Z,40.40
2017-09-24T23:39:32.613Z,45.23
2017-09-24T23:42:00.437Z,40.40
2017-09-24T23:44:28.326Z,38.50
2017-09-24T23:46:55.945Z,37.10
2017-09-24T23:49:24.308Z,38.50
2017-09-24T23:51:51.906Z,36.83
2017-09-24T23:54:19.485Z,37.63
2017-09-24T23:56:47.088Z,35.80
2017-09-24T23:59:15.450Z,35.97
